Time;durP1;ratioP1;P1;durP2;ratioP2;P2;SDS_P1;SDS_P2;PMS_P1;PMS_P2;Temp;Humidity;BMP_temperature;BMP_pressure;BME280_temperature;BME280_humidity;BME280_pressure;Samples;Min_cycle;Max_cycle;Signal;HPM_P1;HPM_P2
2022/09/30 00:01:34;;;;;;;10.18;7.22;;;;;;;5.66;88.90;100771.91;5003622;28;20044;-73
2022/09/30 00:04:01;;;;;;;11.60;7.45;;;;;;;5.62;88.91;100780.72;5019165;28;20037;-73
2022/09/30 00:06:41;;;;;;;10.25;7.22;;;;;;;5.57;88.82;100779.84;5008905;28;20618;-73
2022/09/30 00:09:11;;;;;;;9.32;6.88;;;;;;;5.52;88.33;100781.59;5004279;28;20037;-73
2022/09/30 00:11:45;;;;;;;9.18;7.45;;;;;;;5.50;89.36;100791.25;4999300;28;20033;-72
2022/09/30 00:14:22;;;;;;;10.20;7.38;;;;;;;5.46;89.84;100792.97;4983011;28;20056;-72
2022/09/30 00:16:56;;;;;;;11.05;6.50;;;;;;;5.43;88.35;100789.50;5030641;28;20397;-72
2022/09/30 00:19:21;;;;;;;11.75;6.90;;;;;;;5.39;88.55;100786.88;5030381;28;20508;-73
2022/09/30 00:21:46;;;;;;;12.80;7.22;;;;;;;5.41;89.38;100786.84;5031620;28;20033;-73
2022/09/30 00:24:12;;;;;;;12.40;7.80;;;;;;;5.38;90.19;100786.88;5030160;28;20037;-72
2022/09/30 00:26:38;;;;;;;12.98;7.60;;;;;;;5.39;90.17;100783.38;5031589;28;20041;-73
2022/09/30 00:29:03;;;;;;;14.57;7.03;;;;;;;5.36;89.48;100781.59;5030140;28;20055;-73
2022/09/30 00:31:31;;;;;;;12.13;7.43;;;;;;;5.34;88.92;100775.50;5031776;28;20075;-73
2022/09/30 00:34:06;;;;;;;9.90;7.22;;;;;;;5.33;89.67;100781.63;5031790;28;20052;-72
2022/09/30 00:36:43;;;;;;;12.02;6.85;;;;;;;5.32;88.67;100787.75;5031570;28;20041;-72
2022/09/30 00:39:19;;;;;;;9.93;6.80;;;;;;;5.29;88.65;100779.91;5030294;28;20033;-73
2022/09/30 00:41:47;;;;;;;9.38;7.55;;;;;;;5.27;89.23;100778.16;5031090;28;20037;-72
2022/09/30 00:44:50;;;;;;;12.70;7.57;;;;;;;5.28;89.85;100772.88;5031506;28;20503;-72
2022/09/30 00:47:25;;;;;;;10.88;7.80;;;;;;;5.26;89.94;100776.38;5024564;28;20038;-73
2022/09/30 00:49:52;;;;;;;10.52;7.68;;;;;;;5.22;90.05;100786.03;5007136;28;20492;-73
2022/09/30 00:52:19;;;;;;;9.80;7.53;;;;;;;5.17;90.48;100786.03;5013722;28;20034;-72
2022/09/30 00:54:45;;;;;;;10.63;7.60;;;;;;;5.14;90.65;100788.66;4997440;28;20045;-73
2022/09/30 00:57:11;;;;;;;9.90;7.80;;;;;;;5.12;90.66;100795.66;5013533;28;20029;-73
2022/09/30 00:59:42;;;;;;;9.25;7.00;;;;;;;5.08;89.22;100793.03;4995264;28;20114;-73
2022/09/30 01:02:09;;;;;;;11.30;7.50;;;;;;;5.06;90.02;100798.28;5028814;28;20080;-73
2022/09/30 01:04:36;;;;;;;9.50;7.50;;;;;;;5.03;90.16;100790.41;4981825;28;20374;-72
2022/09/30 01:07:05;;;;;;;12.70;8.27;;;;;;;5.02;90.62;100795.63;5039907;28;20017;-72
2022/09/30 01:09:33;;;;;;;12.65;7.88;;;;;;;4.99;90.80;100793.03;5013628;28;20056;-72
2022/09/30 01:12:03;;;;;;;10.32;7.65;;;;;;;4.93;90.16;100789.53;5046397;28;20115;-72
2022/09/30 01:14:29;;;;;;;10.70;7.20;;;;;;;4.91;90.11;100788.63;5013503;28;20029;-73
2022/09/30 01:17:05;;;;;;;8.65;6.35;;;;;;;4.90;89.04;100797.41;5013571;28;20124;-72
2022/09/30 01:19:54;;;;;;;9.85;6.90;;;;;;;4.92;88.95;100794.75;5012329;28;20124;-73
2022/09/30 01:22:49;;;;;;;10.32;7.05;;;;;;;4.95;89.11;100794.78;5029388;28;20083;-72
2022/09/30 01:25:33;;;;;;;14.55;7.22;;;;;;;4.94;89.39;100787.75;5013168;28;20129;-72
2022/09/30 01:28:34;;;;;;;16.75;7.70;;;;;;;4.97;90.24;100793.03;5030833;28;20033;-72
2022/09/30 01:31:24;;;;;;;9.23;7.60;;;;;;;4.97;90.02;100795.66;5030887;28;20061;-72
2022/09/30 01:34:20;;;;;;;9.52;7.13;;;;;;;4.96;90.43;100793.91;5018605;28;20056;-72
2022/09/30 01:36:59;;;;;;;10.35;8.35;;;;;;;4.90;89.99;100791.28;5020576;28;20120;-72
2022/09/30 01:39:45;;;;;;;9.07;7.43;;;;;;;4.86;90.06;100795.63;5029345;28;20450;-72
2022/09/30 01:42:26;;;;;;;12.98;8.20;;;;;;;4.85;91.52;100793.03;5030799;28;20120;-72
2022/09/30 01:45:23;;;;;;;15.45;7.82;;;;;;;4.84;90.29;100796.50;5013021;28;20037;-72
2022/09/30 01:47:51;;;;;;;14.57;8.23;;;;;;;4.78;89.37;100789.53;5012851;28;20046;-72
2022/09/30 01:50:28;;;;;;;11.32;7.85;;;;;;;4.76;89.46;100791.25;5031009;28;20029;-72
2022/09/30 01:53:58;;;;;;;10.95;8.05;;;;;;;4.74;89.44;100796.50;5030564;28;20447;-72
2022/09/30 01:56:48;;;;;;;11.57;8.50;;;;;;;4.69;89.99;100798.25;5031879;28;20041;-72
2022/09/30 01:59:31;;;;;;;10.43;8.25;;;;;;;4.65;89.88;100800.84;5031567;28;20046;-72
2022/09/30 02:02:19;;;;;;;10.90;7.72;;;;;;;4.64;90.70;100801.72;5018677;28;20470;-72
2022/09/30 02:04:59;;;;;;;10.13;7.90;;;;;;;4.58;90.08;100806.97;5033371;28;20374;-73
2022/09/30 02:07:38;;;;;;;13.93;7.55;;;;;;;4.55;89.73;100799.97;5030233;28;20030;-73
2022/09/30 02:10:09;;;;;;;10.77;8.25;;;;;;;4.54;90.04;100806.09;5040601;28;20115;-72
2022/09/30 02:12:41;;;;;;;11.25;8.65;;;;;;;4.51;90.76;100801.72;5034382;28;20022;-72
2022/09/30 02:15:14;;;;;;;11.60;8.73;;;;;;;4.49;91.27;100800.81;5034417;28;20041;-72
2022/09/30 02:17:50;;;;;;;11.15;8.07;;;;;;;4.46;91.13;100802.56;5032782;28;20438;-73
2022/09/30 02:20:28;;;;;;;10.85;7.65;;;;;;;4.43;91.54;100808.69;5025477;28;20068;-72
2022/09/30 02:23:09;;;;;;;10.35;7.78;;;;;;;4.42;91.43;100806.06;5033970;28;20034;-72
2022/09/30 02:25:41;;;;;;;9.13;7.65;;;;;;;4.39;90.58;100799.06;5033540;28;20382;-72
2022/09/30 02:28:11;;;;;;;9.00;7.32;;;;;;;4.38;90.26;100801.69;5016173;28;20044;-72
2022/09/30 02:30:41;;;;;;;8.82;7.35;;;;;;;4.38;90.54;100801.69;5034022;28;20446;-72
2022/09/30 02:33:19;;;;;;;13.40;7.88;;;;;;;4.41;92.10;100796.44;5032719;28;20112;-72
2022/09/30 02:36:08;;;;;;;8.68;7.35;;;;;;;4.39;91.55;100793.81;5032517;28;20338;-72
2022/09/30 02:38:42;;;;;;;12.02;7.10;;;;;;;4.38;91.10;100792.06;5025053;28;20429;-72
2022/09/30 02:41:21;;;;;;;10.07;7.25;;;;;;;4.38;91.15;100797.31;5033519;28;20073;-72
2022/09/30 02:43:48;;;;;;;8.63;7.30;;;;;;;4.36;91.29;100795.56;5034033;28;20381;-72
2022/09/30 02:46:19;;;;;;;9.55;8.13;;;;;;;4.38;93.04;100796.44;5033574;28;20025;-72
2022/09/30 02:49:03;;;;;;;;;;;;;;;4.45;91.46;100801.72;5034063;28;20036;-72
2022/09/30 02:52:06;;;;;;;14.30;7.43;;;;;;;4.46;93.32;100799.94;5033761;28;20327;-72
2022/09/30 02:54:47;;;;;;;8.40;6.38;;;;;;;4.41;91.61;100799.06;5032263;28;20037;-72
2022/09/30 02:57:27;;;;;;;13.35;6.90;;;;;;;4.43;91.31;100799.94;5033390;28;20430;-72
2022/09/30 02:59:53;;;;;;;10.57;7.40;;;;;;;4.40;91.31;100798.19;5033569;28;20041;-72
2022/09/30 03:02:20;;;;;;;9.63;7.43;;;;;;;4.36;90.87;100798.19;5033343;28;20304;-72
2022/09/30 03:04:48;;;;;;;9.50;7.28;;;;;;;4.34;90.71;100799.91;5032117;28;20045;-72
2022/09/30 03:07:13;;;;;;;10.73;7.65;;;;;;;4.34;91.78;100798.16;5031834;28;20014;-72
2022/09/30 03:09:39;;;;;;;10.20;7.57;;;;;;;4.31;92.01;100804.28;5033312;28;20497;-72
2022/09/30 03:12:23;;;;;;;14.65;8.25;;;;;;;4.26;92.61;100799.91;5033220;28;20041;-72
2022/09/30 03:15:06;;;;;;;11.25;8.38;;;;;;;4.27;92.25;100807.75;5031730;28;20465;-72
2022/09/30 03:17:50;;;;;;;11.38;8.52;;;;;;;4.25;93.45;100804.28;5019625;28;20121;-72
2022/09/30 03:20:33;;;;;;;10.32;8.27;;;;;;;4.27;92.70;100806.88;5026074;28;20040;-72
2022/09/30 03:23:10;;;;;;;12.77;8.55;;;;;;;4.24;93.19;100807.75;5031527;28;20033;-72
2022/09/30 03:25:54;;;;;;;11.18;8.00;;;;;;;4.22;92.91;100814.72;5033064;28;20033;-72
2022/09/30 03:28:29;;;;;;;10.75;8.32;;;;;;;4.20;92.04;100815.59;5031547;28;20041;-72
2022/09/30 03:31:15;;;;;;;12.48;8.85;;;;;;;4.16;92.36;100813.84;5032878;28;20438;-72
2022/09/30 03:34:14;;;;;;;11.85;8.90;;;;;;;4.14;92.77;100819.06;5032824;28;20040;-72
2022/09/30 03:36:48;;;;;;;10.10;8.43;;;;;;;4.12;92.55;100805.06;5031430;28;20052;-72
2022/09/30 03:39:39;;;;;;;11.65;9.40;;;;;;;4.13;92.37;100809.47;5032916;28;20033;-72
2022/09/30 03:42:21;;;;;;;11.70;9.75;;;;;;;4.09;92.26;100811.19;5032498;28;20029;-72
2022/09/30 03:44:53;;;;;;;13.80;9.90;;;;;;;4.09;93.25;100824.28;5032368;28;20038;-72
2022/09/30 03:47:21;;;;;;;11.85;9.02;;;;;;;4.06;93.01;100823.41;5032422;28;20041;-72
2022/09/30 03:49:55;;;;;;;11.80;9.57;;;;;;;4.03;92.59;100820.75;5032397;28;20029;-72
2022/09/30 03:52:25;;;;;;;11.27;9.10;;;;;;;3.99;92.11;100827.75;5032476;28;20064;-72
2022/09/30 03:54:53;;;;;;;14.55;9.60;;;;;;;3.94;92.95;100824.22;5019340;28;20485;-72
2022/09/30 03:57:19;;;;;;;9.98;8.10;;;;;;;3.92;92.41;100820.72;5032196;28;20384;-72
2022/09/30 03:59:44;;;;;;;9.30;7.68;;;;;;;3.90;91.97;100832.91;5032152;28;20029;-72
2022/09/30 04:02:12;;;;;;;10.55;8.30;;;;;;;3.93;93.02;100847.78;5011058;28;20490;-72
2022/09/30 04:04:41;;;;;;;10.52;8.77;;;;;;;3.97;93.50;100850.44;5027928;28;20662;-72
2022/09/30 04:07:09;;;;;;;11.65;8.73;;;;;;;4.00;93.13;100852.19;5031485;28;20214;-72
2022/09/30 04:09:35;;;;;;;10.50;8.60;;;;;;;4.03;93.30;100855.72;5031090;28;20472;-72
2022/09/30 04:12:01;;;;;;;11.02;8.68;;;;;;;4.05;93.04;100863.56;5031890;28;20041;-72
2022/09/30 04:14:26;;;;;;;11.80;8.45;;;;;;;4.08;93.45;100874.09;5011112;28;20042;-72
2022/09/30 04:16:52;;;;;;;10.10;7.38;;;;;;;4.08;92.61;100874.09;5025725;28;20018;-72
2022/09/30 04:19:17;;;;;;;10.10;8.13;;;;;;;4.06;92.47;100879.31;5027457;28;20049;-72
2022/09/30 04:21:43;;;;;;;10.45;8.75;;;;;;;4.05;92.58;100885.41;5009450;28;20098;-72
2022/09/30 04:24:08;;;;;;;10.15;8.88;;;;;;;4.04;92.02;100883.66;5034910;28;20083;-72
2022/09/30 04:26:34;;;;;;;10.73;8.60;;;;;;;4.04;92.25;100882.78;5031702;28;20187;-72
2022/09/30 04:28:59;;;;;;;13.05;8.55;;;;;;;4.02;92.18;100889.78;5030516;28;20072;-72
2022/09/30 04:31:25;;;;;;;11.23;8.32;;;;;;;3.99;92.17;100881.91;5031989;28;20030;-72
2022/09/30 04:33:50;;;;;;;10.43;8.88;;;;;;;3.97;91.73;100884.50;5032866;28;20044;-72
2022/09/30 04:36:17;;;;;;;12.00;9.05;;;;;;;3.96;91.86;100874.03;5030415;28;20120;-72
2022/09/30 04:38:42;;;;;;;11.80;8.80;;;;;;;3.94;91.50;100873.13;5031816;28;20044;-72
2022/09/30 04:41:15;;;;;;;15.05;10.15;;;;;;;3.88;92.17;100872.22;5031612;28;20112;-72
2022/09/30 04:43:45;;;;;;;13.50;10.05;;;;;;;3.86;93.15;100878.34;5031751;28;20033;-72
2022/09/30 04:46:15;;;;;;;12.52;10.20;;;;;;;3.84;93.74;100886.16;5007472;28;20110;-72
2022/09/30 04:48:44;;;;;;;15.45;9.52;;;;;;;3.83;93.16;100897.53;5030334;28;20025;-72
2022/09/30 04:51:15;;;;;;;13.98;9.73;;;;;;;3.83;93.01;100894.00;5029969;28;20056;-72
2022/09/30 04:53:41;;;;;;;11.55;9.45;;;;;;;3.78;92.43;100898.34;5013969;28;20432;-72
2022/09/30 04:56:08;;;;;;;12.63;9.43;;;;;;;3.77;92.64;100904.47;5013037;28;20438;-72
2022/09/30 04:58:34;;;;;;;12.25;9.48;;;;;;;3.73;91.76;100900.06;5013673;28;20029;-72
2022/09/30 05:01:15;;;;;;;14.75;9.68;;;;;;;3.71;92.24;100899.16;5027186;28;20139;-73
2022/09/30 05:03:42;;;;;;;11.45;9.32;;;;;;;3.69;92.57;100903.53;5030032;28;20470;-72
2022/09/30 05:06:08;;;;;;;15.55;11.40;;;;;;;3.66;92.76;100913.13;5025202;28;20083;-72
2022/09/30 05:08:33;;;;;;;16.63;9.35;;;;;;;3.63;91.82;100912.19;5026684;28;20128;-72
2022/09/30 05:11:07;;;;;;;14.05;10.13;;;;;;;3.61;92.80;100913.94;5024125;28;20132;-72
2022/09/30 05:13:35;;;;;;;11.05;9.00;;;;;;;3.58;92.37;100920.00;5023780;28;20116;-72
2022/09/30 05:16:01;;;;;;;12.73;10.07;;;;;;;3.58;92.12;100914.78;5023834;28;20082;-72
2022/09/30 05:18:26;;;;;;;13.38;10.10;;;;;;;3.58;92.27;100919.16;5023823;28;20136;-72
2022/09/30 05:20:53;;;;;;;12.45;10.32;;;;;;;3.56;92.90;100910.41;5025513;28;20064;-72
2022/09/30 05:23:19;;;;;;;14.32;10.57;;;;;;;3.56;93.44;100913.00;5023217;28;20052;-72
2022/09/30 05:25:46;;;;;;;16.92;11.02;;;;;;;3.57;93.43;100914.78;5039989;28;20101;-72
2022/09/30 05:28:12;;;;;;;13.35;10.18;;;;;;;3.54;93.25;100913.03;5022817;28;20048;-72
2022/09/30 05:30:38;;;;;;;13.68;10.88;;;;;;;3.53;93.51;100913.88;5028565;28;20241;-72
2022/09/30 05:33:03;;;;;;;13.55;10.90;;;;;;;3.51;93.25;100920.88;5029625;28;20038;-72
2022/09/30 05:35:29;;;;;;;15.43;11.18;;;;;;;3.52;93.50;100911.25;5029494;28;20033;-72
2022/09/30 05:37:55;;;;;;;13.40;10.73;;;;;;;3.51;93.02;100930.44;5045356;28;20466;-71
2022/09/30 05:40:20;;;;;;;22.75;11.45;;;;;;;3.49;93.63;100934.78;5028023;28;20045;-71
2022/09/30 05:42:46;;;;;;;12.98;10.55;;;;;;;3.49;94.27;100940.91;5029614;28;20026;-72
2022/09/30 05:45:12;;;;;;;16.45;12.15;;;;;;;3.52;94.31;100950.53;5025848;28;20048;-72
2022/09/30 05:47:38;;;;;;;14.18;12.07;;;;;;;3.52;94.12;100948.78;5024308;28;20120;-72
2022/09/30 05:50:04;;;;;;;15.48;12.55;;;;;;;3.54;94.85;100957.53;5027584;28;20033;-72
2022/09/30 05:52:30;;;;;;;20.65;13.45;;;;;;;3.54;95.01;100962.78;5029028;28;20041;-72
2022/09/30 05:54:59;;;;;;;16.80;13.13;;;;;;;3.55;94.72;100955.78;5029182;28;20056;-72
2022/09/30 05:57:27;;;;;;;18.17;13.48;;;;;;;3.58;95.32;100958.44;5029170;28;20532;-72
2022/09/30 05:59:54;;;;;;;18.35;12.70;;;;;;;3.59;95.42;100965.44;5029173;28;20420;-71
2022/09/30 06:02:19;;;;;;;14.55;11.10;;;;;;;3.60;94.49;100970.66;5028436;28;20207;-72
2022/09/30 06:04:45;;;;;;;19.13;13.52;;;;;;;3.61;95.13;100967.19;5027346;28;20124;-72
2022/09/30 06:07:12;;;;;;;15.10;11.27;;;;;;;3.65;94.68;100968.97;5029079;28;20089;-72
2022/09/30 06:09:38;;;;;;;15.63;11.80;;;;;;;3.67;94.60;100971.59;5029490;28;20045;-72
2022/09/30 06:12:05;;;;;;;20.15;11.95;;;;;;;3.69;94.44;100980.34;5034230;28;20720;-72
2022/09/30 06:14:31;;;;;;;15.15;12.60;;;;;;;3.72;95.15;100969.03;5039682;28;20033;-72
2022/09/30 06:16:59;;;;;;;17.48;13.23;;;;;;;3.73;95.36;100965.53;5018035;28;20037;-72
2022/09/30 06:19:29;;;;;;;16.15;13.43;;;;;;;3.79;95.33;100979.56;5020711;28;20505;-72
2022/09/30 06:21:58;;;;;;;18.17;14.73;;;;;;;3.87;96.09;100988.34;5030833;28;20040;-72
2022/09/30 06:24:24;;;;;;;20.65;15.70;;;;;;;3.96;96.87;100978.84;5022040;28;20281;-72
2022/09/30 06:26:49;;;;;;;20.13;14.10;;;;;;;4.01;96.83;100990.22;5027435;28;20116;-72
2022/09/30 06:29:15;;;;;;;18.92;14.40;;;;;;;4.06;96.51;100986.75;5014188;28;20112;-72
2022/09/30 06:31:40;;;;;;;17.65;14.60;;;;;;;4.11;96.74;100989.41;5020728;28;20463;-72
2022/09/30 06:34:07;;;;;;;17.90;13.98;;;;;;;4.17;97.12;100991.19;5017185;28;20022;-72
2022/09/30 06:36:32;;;;;;;18.80;13.73;;;;;;;4.23;96.98;100983.38;5022659;28;20038;-72
2022/09/30 06:39:03;;;;;;;17.70;14.65;;;;;;;4.29;97.12;100979.03;5016438;28;20555;-72
2022/09/30 06:41:29;;;;;;;22.75;16.70;;;;;;;4.36;97.79;100979.97;5013435;28;20046;-71
2022/09/30 06:43:56;;;;;;;19.00;15.02;;;;;;;4.42;97.95;100981.72;5016940;28;20061;-72
2022/09/30 06:46:23;;;;;;;23.00;16.85;;;;;;;4.46;97.94;100980.88;5013824;28;20070;-71
2022/09/30 06:48:56;;;;;;;21.08;16.95;;;;;;;4.55;98.65;100982.66;5015787;28;20489;-72
2022/09/30 06:51:24;;;;;;;21.20;16.17;;;;;;;4.63;98.57;100984.47;5032381;28;20035;-72
2022/09/30 06:53:54;;;;;;;21.30;16.83;;;;;;;4.70;98.68;100982.75;5017509;28;20030;-72
2022/09/30 06:56:20;;;;;;;22.43;17.47;;;;;;;4.74;98.58;100980.13;5019684;28;20161;-71
2022/09/30 06:58:45;;;;;;;21.45;15.68;;;;;;;4.83;98.21;100976.69;4995121;28;20133;-71
2022/09/30 07:01:13;;;;;;;22.15;17.63;;;;;;;4.93;99.30;100974.97;5012105;28;20065;-72
2022/09/30 07:03:38;;;;;;;25.77;18.38;;;;;;;5.04;99.65;100975.88;5019455;28;20491;-72
2022/09/30 07:06:05;;;;;;;28.02;21.60;;;;;;;5.16;100.00;100985.53;5023270;28;20121;-72
2022/09/30 07:08:33;;;;;;;28.05;19.80;;;;;;;5.27;100.00;100990.84;5020031;28;20034;-72
2022/09/30 07:11:11;;;;;;;24.63;18.95;;;;;;;5.39;100.00;100985.59;5025411;28;20029;-72
2022/09/30 07:13:38;;;;;;;26.50;18.55;;;;;;;5.49;100.00;100981.22;5020700;28;20478;-72
2022/09/30 07:16:04;;;;;;;28.88;20.27;;;;;;;5.60;100.00;100982.97;5023952;28;20053;-72
2022/09/30 07:18:29;;;;;;;25.63;17.67;;;;;;;5.70;100.00;100980.38;5021052;28;20064;-72
2022/09/30 07:20:55;;;;;;;27.70;21.25;;;;;;;5.83;100.00;100982.09;5020860;28;20113;-72
2022/09/30 07:23:24;;;;;;;22.83;17.92;;;;;;;5.96;100.00;100983.00;5028917;28;20034;-72
2022/09/30 07:25:59;;;;;;;29.30;20.67;;;;;;;6.13;100.00;100980.38;5012675;28;20038;-72
2022/09/30 07:28:30;;;;;;;29.77;20.30;;;;;;;6.27;100.00;100983.84;5018133;28;20117;-72
2022/09/30 07:30:56;;;;;;;26.08;19.52;;;;;;;6.41;100.00;100989.09;5018994;28;20045;-72
2022/09/30 07:33:22;;;;;;;30.13;20.17;;;;;;;6.53;100.00;100986.44;5030954;28;20314;-72
2022/09/30 07:35:55;;;;;;;21.30;17.10;;;;;;;6.66;99.96;100977.59;5006624;28;20041;-72
2022/09/30 07:38:23;;;;;;;22.75;18.60;;;;;;;6.82;100.00;100986.31;5029169;28;20029;-72
2022/09/30 07:40:58;;;;;;;25.00;18.42;;;;;;;6.97;99.95;100984.50;5020737;28;20334;-72
2022/09/30 07:43:33;;;;;;;26.98;20.25;;;;;;;7.11;100.00;100993.22;5025799;28;20112;-72
2022/09/30 07:46:08;;;;;;;29.13;20.42;;;;;;;7.30;100.00;100988.72;5047145;28;20356;-72
2022/09/30 07:48:46;;;;;;;22.15;18.13;;;;;;;7.43;99.53;100989.53;5023780;28;20033;-72
2022/09/30 07:51:18;;;;;;;19.05;15.05;;;;;;;7.59;98.67;100982.38;5024841;28;20049;-73
2022/09/30 07:53:44;;;;;;;;;;;;;;;7.72;98.28;100986.69;5023122;28;20053;-73
2022/09/30 07:56:11;;;;;;;18.88;16.35;;;;;;;7.84;97.83;100976.03;5026950;28;19917;-73
2022/09/30 07:58:37;;;;;;;21.40;17.40;;;;;;;8.02;98.41;100976.75;5010449;28;20597;-73
2022/09/30 08:01:05;;;;;;;22.33;17.48;;;;;;;8.17;98.68;100971.34;5020198;28;20042;-73
2022/09/30 08:03:32;;;;;;;22.50;17.25;;;;;;;8.29;98.02;100979.13;5021815;28;20377;-73
2022/09/30 08:06:06;;;;;;;20.85;17.77;;;;;;;8.45;97.59;100974.56;5008502;28;20099;-73
2022/09/30 08:08:32;;;;;;;21.08;16.27;;;;;;;8.57;96.95;100979.72;5027107;28;20450;-73
2022/09/30 08:10:59;;;;;;;19.27;15.43;;;;;;;8.70;96.11;100980.44;5021043;28;20030;-73
2022/09/30 08:13:25;;;;;;;23.40;15.73;;;;;;;8.85;95.76;100981.16;5024351;28;20030;-73
2022/09/30 08:15:50;;;;;;;21.85;16.25;;;;;;;9.00;95.78;100973.03;5016506;28;20045;-73
2022/09/30 08:18:15;;;;;;;22.80;15.20;;;;;;;9.14;95.43;100972.88;5025189;28;20069;-73
2022/09/30 08:20:41;;;;;;;19.17;14.90;;;;;;;9.28;94.60;100980.59;5023607;28;20045;-73
2022/09/30 08:23:06;;;;;;;19.42;15.57;;;;;;;9.42;95.38;100981.25;5021391;28;20034;-73
2022/09/30 08:25:32;;;;;;;20.70;14.15;;;;;;;9.56;94.02;100981.06;5022391;28;20064;-73
2022/09/30 08:27:57;;;;;;;22.23;14.07;;;;;;;9.69;93.67;100975.56;5024066;28;20040;-73
2022/09/30 08:30:23;;;;;;;18.23;13.93;;;;;;;9.83;93.17;100974.47;5018301;28;20504;-74
2022/09/30 08:32:48;;;;;;;20.55;13.63;;;;;;;9.97;92.07;100976.88;5021403;28;20652;-74
2022/09/30 08:35:14;;;;;;;16.15;10.98;;;;;;;10.05;90.16;100978.47;5019923;28;20088;-74
2022/09/30 08:37:40;;;;;;;17.10;11.60;;;;;;;10.16;90.04;100980.06;5016413;28;20067;-74
2022/09/30 08:40:09;;;;;;;21.35;12.52;;;;;;;10.27;89.55;100978.09;5008477;28;20373;-74
2022/09/30 08:42:41;;;;;;;17.40;11.85;;;;;;;10.38;89.08;100973.50;5017204;28;20065;-74
2022/09/30 08:45:25;;;;;;;13.68;9.77;;;;;;;10.48;88.92;100977.75;5017116;28;20045;-74
2022/09/30 08:48:15;;;;;;;16.63;12.48;;;;;;;10.61;88.55;100983.66;5014332;28;20030;-74
2022/09/30 08:51:20;;;;;;;15.80;11.07;;;;;;;10.73;88.15;100988.72;5020180;28;20033;-74
2022/09/30 08:53:46;;;;;;;18.17;12.77;;;;;;;10.86;87.09;101001.72;4970686;28;20058;-74
2022/09/30 08:56:21;;;;;;;17.23;13.70;;;;;;;10.95;86.49;100998.84;4983742;28;20427;-74
2022/09/30 08:58:48;;;;;;;16.20;12.63;;;;;;;11.07;86.92;100995.06;5004881;28;20103;-74
2022/09/30 09:01:31;;;;;;;19.95;13.55;;;;;;;11.18;86.30;100991.31;5025156;28;20033;-74
2022/09/30 09:03:58;;;;;;;16.17;13.70;;;;;;;11.29;85.03;100988.41;5014825;28;20033;-74
2022/09/30 09:06:35;;;;;;;14.60;12.45;;;;;;;11.34;85.01;100975.91;5027213;28;20033;-74
2022/09/30 09:09:39;;;;;;;20.63;12.75;;;;;;;11.46;85.71;100969.47;5018550;28;20184;-74
2022/09/30 09:12:21;;;;;;;16.50;12.48;;;;;;;11.59;84.21;100978.84;5006396;28;20030;-74
2022/09/30 09:15:13;;;;;;;16.15;11.88;;;;;;;11.71;84.27;100990.09;5001358;28;20052;-75
2022/09/30 09:18:21;;;;;;;17.23;12.13;;;;;;;11.80;83.98;100976.63;5019794;28;20065;-75
2022/09/30 09:20:54;;;;;;;17.75;11.55;;;;;;;12.01;83.18;100986.69;5016952;28;20041;-75
2022/09/30 09:23:20;;;;;;;15.10;11.32;;;;;;;12.13;82.73;100982.88;5022952;28;20122;-75
2022/09/30 09:25:49;;;;;;;21.65;11.10;;;;;;;12.20;81.04;100981.81;5030624;28;20393;-75
2022/09/30 09:28:21;;;;;;;15.93;12.50;;;;;;;12.31;80.77;100991.25;4998302;28;20396;-75
2022/09/30 09:30:52;;;;;;;16.25;11.35;;;;;;;12.40;80.98;100996.34;5024266;28;20465;-75
2022/09/30 09:33:25;;;;;;;15.25;11.32;;;;;;;12.53;82.02;100995.06;5010477;28;20051;-75
2022/09/30 09:36:17;;;;;;;12.85;10.35;;;;;;;12.74;81.30;101000.72;5011213;28;20045;-75
2022/09/30 09:39:06;;;;;;;14.02;10.82;;;;;;;12.86;80.71;100995.94;5011163;28;20029;-75
2022/09/30 09:41:55;;;;;;;12.88;9.88;;;;;;;12.90;77.85;100994.91;5012795;28;20029;-76
2022/09/30 09:44:29;;;;;;;14.80;10.48;;;;;;;13.00;79.67;100986.66;5018185;28;20042;-76
2022/09/30 09:47:23;;;;;;;13.07;9.80;;;;;;;13.13;79.31;100986.28;5010725;28;20049;-75
2022/09/30 09:49:54;;;;;;;13.95;10.57;;;;;;;13.21;77.63;100988.69;5009445;28;20057;-76
2022/09/30 09:52:46;;;;;;;12.70;9.30;;;;;;;13.37;78.17;100981.13;5011054;28;20105;-75
2022/09/30 09:55:13;;;;;;;11.68;9.40;;;;;;;13.51;78.14;100976.25;5010673;28;20030;-76
2022/09/30 09:57:40;;;;;;;13.43;9.90;;;;;;;13.61;77.37;100973.31;5011036;28;20057;-76
2022/09/30 10:03:20;;;;;;;10.02;8.23;;;;;;;13.96;77.37;100972.13;5010748;28;20108;-76
2022/09/30 10:05:58;;;;;;;12.63;8.88;;;;;;;14.10;77.00;100975.19;5010973;28;20397;-76
2022/09/30 10:08:24;;;;;;;10.25;8.90;;;;;;;14.17;74.69;100971.41;5025485;28;20048;-76
2022/09/30 10:10:53;;;;;;;11.73;8.77;;;;;;;14.32;75.38;100964.69;5030702;28;20059;-76
2022/09/30 10:13:22;;;;;;;11.45;8.02;;;;;;;14.45;74.84;100965.09;5029070;28;20044;-76
2022/09/30 10:15:50;;;;;;;13.02;7.50;;;;;;;14.59;74.22;100970.84;5031404;28;20091;-76
2022/09/30 10:18:22;;;;;;;10.98;7.85;;;;;;;14.72;72.98;100971.25;5027553;28;20135;-76
2022/09/30 10:21:00;;;;;;;9.75;7.90;;;;;;;14.87;73.46;100976.94;5027860;28;20489;-76
2022/09/30 10:23:29;;;;;;;11.90;7.70;;;;;;;14.96;71.71;100979.25;5031989;28;20520;-76
2022/09/30 10:25:55;;;;;;;9.60;6.90;;;;;;;15.17;73.20;100974.91;5019053;28;20048;-76
2022/09/30 10:28:27;;;;;;;11.27;6.70;;;;;;;15.31;70.51;100969.03;5034075;28;20041;-76
2022/09/30 10:31:13;;;;;;;12.00;6.63;;;;;;;15.49;72.01;100971.81;5033653;28;20065;-76
2022/09/30 10:33:45;;;;;;;8.73;6.15;;;;;;;15.62;69.21;100979.34;5033947;28;20037;-76
2022/09/30 10:36:15;;;;;;;9.85;6.53;;;;;;;15.63;67.27;100976.63;5033615;28;20048;-76
2022/09/30 10:38:49;;;;;;;7.55;5.75;;;;;;;15.77;67.34;100985.88;5032483;28;20033;-76
2022/09/30 10:41:22;;;;;;;7.72;5.82;;;;;;;15.90;68.67;100976.44;5020308;28;20049;-76
2022/09/30 10:43:52;;;;;;;7.05;5.50;;;;;;;15.88;65.23;100980.97;5033820;28;20036;-77
2022/09/30 10:46:31;;;;;;;8.35;5.50;;;;;;;15.89;65.85;100982.72;5019792;28;20029;-76
2022/09/30 10:48:58;;;;;;;6.43;4.65;;;;;;;15.83;64.02;100977.63;5033851;28;20029;-77
2022/09/30 10:51:27;;;;;;;7.10;4.65;;;;;;;15.94;64.99;100982.50;5033380;28;20124;-77
2022/09/30 10:53:54;;;;;;;4.88;4.00;;;;;;;16.13;65.19;100975.47;5033674;28;20080;-77
2022/09/30 10:56:44;;;;;;;4.97;3.80;;;;;;;16.29;65.33;100979.19;5011879;28;20191;-77
2022/09/30 10:59:28;;;;;;;3.88;3.45;;;;;;;16.16;61.86;100974.47;5027064;28;20501;-78
2022/09/30 11:02:00;;;;;;;4.93;4.07;;;;;;;16.17;62.21;100978.84;5024702;28;20119;-77
2022/09/30 11:04:38;;;;;;;6.60;4.25;;;;;;;16.33;64.14;100970.13;5028724;28;20056;-78
2022/09/30 11:07:20;;;;;;;8.75;4.22;;;;;;;16.48;62.86;100981.06;5028317;28;20029;-77
2022/09/30 11:10:03;;;;;;;6.03;4.10;;;;;;;15.98;62.53;100977.00;5026456;28;20099;-78
2022/09/30 11:12:43;;;;;;;7.68;3.75;;;;;;;16.00;63.81;100971.56;4995800;28;20068;-78
2022/09/30 11:15:20;;;;;;;4.97;3.40;;;;;;;16.15;61.73;100968.25;5010869;28;20034;-78
2022/09/30 11:17:58;;;;;;;5.53;3.40;;;;;;;16.22;62.29;100977.75;5031654;28;20033;-77
2022/09/30 11:20:29;;;;;;;6.88;2.80;;;;;;;16.43;62.24;100969.72;5019248;28;20038;-78
2022/09/30 11:23:04;;;;;;;3.55;2.70;;;;;;;16.58;60.73;100966.38;5021079;28;20449;-78
2022/09/30 11:25:48;;;;;;;4.82;2.72;;;;;;;16.66;58.34;100972.22;5031641;28;20091;-78
2022/09/30 11:28:34;;;;;;;3.60;2.83;;;;;;;16.72;60.60;100969.28;5031769;28;20096;-78
2022/09/30 11:31:31;;;;;;;4.10;2.90;;;;;;;16.99;61.53;100963.66;5048219;28;20092;-78
2022/09/30 11:34:38;;;;;;;4.10;3.10;;;;;;;17.26;60.97;100960.59;5031418;28;20164;-78
2022/09/30 11:37:47;;;;;;;5.28;2.88;;;;;;;17.48;60.16;100947.94;5004007;28;20041;-78
2022/09/30 11:40:18;;;;;;;4.43;2.70;;;;;;;17.60;57.97;100951.78;5025964;28;20053;-78
2022/09/30 11:43:16;;;;;;;4.53;2.85;;;;;;;17.77;59.34;100951.81;5031077;28;20139;-78
2022/09/30 11:46:09;;;;;;;4.20;2.80;;;;;;;17.66;59.51;100935.44;5032274;28;20045;-78
2022/09/30 11:48:57;;;;;;;3.70;2.78;;;;;;;17.94;58.50;100934.06;5022018;28;20482;-78
2022/09/30 11:51:27;;;;;;;4.97;2.55;;;;;;;17.88;56.41;100931.69;5030868;28;20140;-78
2022/09/30 11:54:32;;;;;;;4.23;2.30;;;;;;;17.42;57.00;100935.69;5032454;28;20025;-78